Time;durP1;ratioP1;P1;durP2;ratioP2;P2;SDS_P1;SDS_P2;PMS_P1;PMS_P2;Temp;Humidity;BMP_temperature;BMP_pressure;BME280_temperature;BME280_humidity;BME280_pressure;Samples;Min_cycle;Max_cycle;Signal;HPM_P1;HPM_P2
2021/07/17 00:00:56;;;;;;;16.57;13.80;;;;;;;22.28;89.16;100273.56;2702110;88;21650;-71
2021/07/17 00:04:58;;;;;;;17.45;14.90;;;;;;;22.27;89.92;100268.69;2702074;88;21084;-72
2021/07/17 00:09:00;;;;;;;16.23;13.95;;;;;;;22.37;90.53;100266.41;2702663;88;21081;-72
2021/07/17 00:13:02;;;;;;;17.60;13.60;;;;;;;22.51;89.96;100266.48;2702396;88;20998;-71
2021/07/17 00:17:04;;;;;;;16.95;13.43;;;;;;;22.61;90.06;100262.02;2702315;86;21094;-71
2021/07/17 00:21:05;;;;;;;21.50;15.30;;;;;;;22.71;89.67;100258.90;2702234;88;21073;-70
2021/07/17 00:25:13;;;;;;;18.15;13.85;;;;;;;22.74;89.58;100248.48;2702384;86;21174;-70
2021/07/17 00:29:15;;;;;;;24.20;13.85;;;;;;;22.80;89.30;100244.11;2702325;88;21018;-70
2021/07/17 00:33:17;;;;;;;17.85;13.95;;;;;;;22.65;88.83;100244.28;2702568;86;21583;-71
2021/07/17 00:37:20;;;;;;;21.20;14.87;;;;;;;22.53;89.98;100251.69;2702780;88;21077;-71
2021/07/17 00:41:23;;;;;;;19.52;13.85;;;;;;;22.42;90.52;100247.37;2702532;88;20990;-72
2021/07/17 00:45:26;;;;;;;14.95;12.70;;;;;;;22.43;90.67;100237.66;2702398;88;21101;-71
2021/07/17 00:49:29;;;;;;;17.77;12.33;;;;;;;22.23;91.08;100242.52;2702769;88;21074;-71
2021/07/17 00:53:31;;;;;;;16.32;14.58;;;;;;;22.15;91.77;100241.86;2702145;86;21097;-71
2021/07/17 00:57:35;;;;;;;14.05;11.43;;;;;;;22.13;92.95;100238.02;2702062;88;21022;-70
2021/07/17 01:01:36;;;;;;;19.25;12.65;;;;;;;22.09;92.85;100236.73;2702171;86;20995;-74
2021/07/17 01:05:39;;;;;;;17.07;13.70;;;;;;;22.12;93.33;100232.28;2702130;88;21050;-72
2021/07/17 01:09:41;;;;;;;27.22;12.90;;;;;;;22.20;93.24;100229.88;2701957;88;21081;-71
2021/07/17 01:13:43;;;;;;;19.42;12.58;;;;;;;22.17;93.43;100231.66;2702502;86;21022;-71
2021/07/17 01:17:45;;;;;;;14.13;10.93;;;;;;;22.18;92.99;100236.03;2702384;88;21121;-71
2021/07/17 01:21:50;;;;;;;18.10;12.10;;;;;;;22.04;93.50;100246.84;2702583;88;21488;-71
2021/07/17 01:25:52;;;;;;;23.40;13.00;;;;;;;22.00;94.47;100250.15;2702111;88;21145;-71
2021/07/17 01:29:53;;;;;;;22.98;12.65;;;;;;;21.97;95.44;100244.10;2702641;88;21054;-72
2021/07/17 01:33:55;;;;;;;19.00;13.20;;;;;;;22.04;95.73;100237.86;2700749;87;21091;-71
2021/07/17 01:37:57;;;;;;;15.93;11.40;;;;;;;22.04;95.71;100239.22;2698719;88;21002;-72
2021/07/17 01:41:59;;;;;;;19.67;14.07;;;;;;;22.07;96.35;100231.53;2698619;88;21073;-70
2021/07/17 01:46:02;;;;;;;17.62;12.10;;;;;;;22.07;96.75;100228.83;2698550;88;21041;-71
2021/07/17 01:50:09;;;;;;;17.07;12.75;;;;;;;22.11;97.03;100226.02;2698628;88;21042;-70
2021/07/17 01:54:11;;;;;;;21.45;12.63;;;;;;;22.14;96.78;100225.30;2698860;88;21078;-70
2021/07/17 01:58:13;;;;;;;21.90;11.73;;;;;;;22.21;97.37;100222.10;2698366;88;21078;-72
2021/07/17 02:02:15;;;;;;;19.57;12.53;;;;;;;22.29;97.07;100211.06;2698668;87;21097;-71
2021/07/17 02:06:26;;;;;;;19.02;12.20;;;;;;;22.34;97.00;100205.86;2698459;87;21045;-71
2021/07/17 02:10:32;;;;;;;19.87;13.18;;;;;;;22.41;97.01;100215.36;2698315;87;21133;-72
2021/07/17 02:14:37;;;;;;;19.80;13.13;;;;;;;22.45;97.12;100207.66;2698522;88;21010;-71
2021/07/17 02:18:39;;;;;;;;;;;;;;;22.36;97.34;100198.89;2700725;87;21145;-71
2021/07/17 02:22:41;;;;;;;22.05;15.45;;;;;;;22.23;98.80;100218.67;2698770;87;20120;-72
2021/07/17 02:26:45;;;;;;;18.55;13.75;;;;;;;22.13;100.00;100220.91;2698314;88;21085;-72
2021/07/17 02:30:50;;;;;;;23.10;15.20;;;;;;;22.12;100.00;100228.22;2698268;88;21082;-70
2021/07/17 02:34:53;;;;;;;15.83;13.65;;;;;;;22.18;100.00;100227.40;2698389;87;21038;-73
2021/07/17 02:38:54;;;;;;;24.47;14.00;;;;;;;22.20;100.00;100232.09;2698746;88;20990;-71
2021/07/17 02:42:56;;;;;;;17.15;13.08;;;;;;;22.29;100.00;100223.25;2698599;87;21026;-72
2021/07/17 02:47:00;;;;;;;20.23;14.28;;;;;;;22.40;100.00;100225.88;2698391;88;21077;-73
2021/07/17 02:51:02;;;;;;;17.67;14.18;;;;;;;22.50;100.00;100226.87;2698737;87;21062;-70
2021/07/17 02:55:05;;;;;;;22.90;15.08;;;;;;;22.56;100.00;100217.08;2698540;88;21587;-72
2021/07/17 02:59:07;;;;;;;19.85;13.65;;;;;;;22.58;99.89;100222.59;2698483;88;21066;-71
2021/07/17 03:03:12;;;;;;;25.08;14.68;;;;;;;22.61;99.59;100227.63;2698696;86;21109;-72
2021/07/17 03:07:15;;;;;;;21.77;13.62;;;;;;;22.57;99.94;100231.77;2698608;88;21053;-71
2021/07/17 03:11:18;;;;;;;22.45;14.55;;;;;;;22.55;100.00;100223.01;2698190;87;21081;-72
2021/07/17 03:15:22;;;;;;;27.37;15.05;;;;;;;22.57;100.00;100222.81;2698399;87;21061;-70
2021/07/17 03:19:23;;;;;;;21.60;14.07;;;;;;;22.60;100.00;100215.62;2698704;88;21085;-71
2021/07/17 03:23:25;;;;;;;23.12;14.03;;;;;;;22.63;100.00;100217.41;2697933;88;21110;-72
2021/07/17 03:27:27;;;;;;;23.73;15.30;;;;;;;22.61;100.00;100215.93;2698547;88;21095;-72
2021/07/17 03:31:31;;;;;;;17.30;13.38;;;;;;;22.56;100.00;100219.25;2698672;88;20991;-71
2021/07/17 03:35:33;;;;;;;22.22;14.30;;;;;;;22.53;100.00;100219.17;2698297;87;21069;-71
2021/07/17 03:39:35;;;;;;;16.23;14.05;;;;;;;22.58;100.00;100213.10;2698250;87;21042;-71
2021/07/17 03:43:37;;;;;;;18.23;15.43;;;;;;;22.61;100.00;100218.13;2698394;88;21025;-73
2021/07/17 03:47:39;;;;;;;18.70;15.43;;;;;;;22.64;100.00;100217.72;2697713;86;21033;-71
2021/07/17 03:51:40;;;;;;;20.32;16.25;;;;;;;22.77;100.00;100211.97;2698461;88;21541;-72
2021/07/17 03:55:42;;;;;;;19.05;13.93;;;;;;;22.86;100.00;100213.95;2698176;88;21054;-72
2021/07/17 03:59:44;;;;;;;24.23;13.72;;;;;;;22.93;100.00;100218.33;2698492;88;21045;-72
2021/07/17 04:03:47;;;;;;;19.87;14.20;;;;;;;22.96;100.00;100204.34;2698751;88;21029;-70
2021/07/17 04:07:49;;;;;;;28.75;13.13;;;;;;;22.98;100.00;100212.28;2698601;87;21578;-72
2021/07/17 04:11:51;;;;;;;22.48;12.18;;;;;;;23.01;100.00;100205.08;2698591;86;21061;-71
2021/07/17 04:15:54;;;;;;;16.30;12.05;;;;;;;23.08;100.00;100197.75;2698389;87;21106;-73
2021/07/17 04:19:56;;;;;;;16.70;10.68;;;;;;;23.11;100.00;100199.23;2698677;87;21054;-71
2021/07/17 04:23:59;;;;;;;17.42;11.88;;;;;;;23.16;100.00;100199.41;2698429;88;21097;-71
2021/07/17 04:28:01;;;;;;;15.10;11.90;;;;;;;23.22;100.00;100194.52;2698921;86;21018;-72
2021/07/17 04:32:04;;;;;;;15.08;11.93;;;;;;;23.30;100.00;100202.14;2698867;87;20992;-73
2021/07/17 04:36:09;;;;;;;19.75;12.43;;;;;;;23.33;99.89;100205.78;2701074;87;21097;-72
2021/07/17 04:40:12;;;;;;;19.62;13.18;;;;;;;23.35;99.71;100206.41;2703307;88;21041;-72
2021/07/17 04:44:14;;;;;;;18.55;12.60;;;;;;;23.37;99.78;100203.80;2702799;88;21030;-71
2021/07/17 04:48:16;;;;;;;17.90;13.62;;;;;;;23.43;99.82;100203.48;2702681;88;21033;-70
2021/07/17 04:52:18;;;;;;;22.35;14.10;;;;;;;23.40;99.41;100198.48;2702593;88;21062;-70
2021/07/17 04:56:20;;;;;;;21.62;14.95;;;;;;;23.33;99.67;100194.93;2702590;86;21060;-71
2021/07/17 05:00:22;;;;;;;25.37;15.23;;;;;;;23.25;100.00;100194.60;2702764;88;21037;-72
2021/07/17 05:04:24;;;;;;;20.85;15.13;;;;;;;23.21;100.00;100202.86;2702712;88;21369;-71
2021/07/17 05:08:26;;;;;;;25.12;16.42;;;;;;;23.20;100.00;100197.97;2702581;88;20990;-71
2021/07/17 05:12:27;;;;;;;23.20;16.80;;;;;;;23.18;100.00;100195.97;2702326;88;21052;-71
2021/07/17 05:16:30;;;;;;;19.12;15.03;;;;;;;23.18;100.00;100192.44;2702157;88;21080;-72
2021/07/17 05:20:32;;;;;;;28.38;16.62;;;;;;;23.23;100.00;100192.63;2702216;86;21567;-72
2021/07/17 05:24:35;;;;;;;27.90;18.82;;;;;;;23.29;100.00;100200.48;2702138;88;21054;-71
2021/07/17 05:28:37;;;;;;;19.40;15.72;;;;;;;23.35;100.00;100203.69;2702478;88;21088;-72
2021/07/17 05:32:39;;;;;;;23.65;18.50;;;;;;;23.32;100.00;100205.48;2702175;86;21042;-72
2021/07/17 05:36:41;;;;;;;24.57;16.93;;;;;;;23.33;100.00;100205.78;2699175;86;21097;-72
2021/07/17 05:40:44;;;;;;;19.65;17.25;;;;;;;23.36;100.00;100204.84;2698337;88;20998;-72
2021/07/17 05:44:46;;;;;;;28.30;19.60;;;;;;;23.46;100.00;100196.26;2698419;88;21069;-73
2021/07/17 05:48:47;;;;;;;18.60;16.65;;;;;;;23.56;100.00;100194.45;2698384;87;21077;-73
2021/07/17 05:52:49;;;;;;;27.52;17.25;;;;;;;23.68;100.00;100202.77;2698350;88;21050;-72
2021/07/17 05:56:52;;;;;;;25.65;20.88;;;;;;;23.75;100.00;100206.27;2698170;87;30556;-71
2021/07/17 06:00:54;;;;;;;25.43;17.90;;;;;;;23.85;100.00;100211.78;2697948;88;21061;-71
2021/07/17 06:04:56;;;;;;;26.42;20.40;;;;;;;23.91;100.00;100204.97;2698240;88;21002;-70
2021/07/17 06:08:58;;;;;;;25.02;19.50;;;;;;;23.95;100.00;100209.42;2698408;88;21078;-72
2021/07/17 06:12:59;;;;;;;34.35;21.55;;;;;;;23.98;100.00;100214.45;2698159;88;21041;-71
2021/07/17 06:17:02;;;;;;;28.40;21.62;;;;;;;24.02;100.00;100217.06;2698107;88;21046;-72
2021/07/17 06:21:04;;;;;;;27.07;19.87;;;;;;;24.09;100.00;100214.31;2698164;88;21105;-73
2021/07/17 06:25:10;;;;;;;30.05;21.37;;;;;;;24.08;99.66;100218.09;2698557;88;21013;-71
2021/07/17 06:29:12;;;;;;;26.85;20.75;;;;;;;24.11;99.66;100219.00;2698443;88;21531;-70
2021/07/17 06:33:16;;;;;;;26.90;21.40;;;;;;;24.19;99.55;100225.53;2698534;88;22163;-71
2021/07/17 06:37:17;;;;;;;25.90;19.90;;;;;;;24.26;99.14;100232.29;2698577;87;21152;-72
2021/07/17 06:41:19;;;;;;;30.88;19.87;;;;;;;24.30;97.93;100242.21;2698204;88;21058;-71
2021/07/17 06:45:21;;;;;;;32.55;22.00;;;;;;;24.25;98.05;100242.86;2698453;88;21106;-71
2021/07/17 06:49:23;;;;;;;29.77;19.65;;;;;;;24.30;98.12;100248.47;2698729;88;21049;-70
2021/07/17 06:53:25;;;;;;;30.48;21.77;;;;;;;24.30;97.56;100249.82;2698504;87;21046;-72
2021/07/17 06:57:29;;;;;;;26.10;19.30;;;;;;;24.25;97.31;100255.91;2698143;88;21097;-71
2021/07/17 07:01:32;;;;;;;24.52;18.62;;;;;;;24.32;97.86;100257.77;2698292;86;21044;-69
2021/07/17 07:05:36;;;;;;;23.87;20.20;;;;;;;24.43;96.74;100254.34;2698729;86;21038;-72
2021/07/17 07:09:37;;;;;;;28.05;20.45;;;;;;;24.45;97.12;100253.59;2698512;88;21053;-70
2021/07/17 07:13:40;;;;;;;24.02;18.57;;;;;;;24.57;96.65;100256.47;2698784;86;21041;-70
2021/07/17 07:17:44;;;;;;;25.62;18.15;;;;;;;24.60;95.75;100255.17;2698153;88;21116;-72
2021/07/17 07:21:46;;;;;;;33.08;18.87;;;;;;;24.63;95.76;100256.94;2698422;86;21069;-71
2021/07/17 07:25:48;;;;;;;21.25;18.37;;;;;;;24.70;95.69;100258.77;2698493;88;21049;-71
2021/07/17 07:29:49;;;;;;;21.20;17.82;;;;;;;24.78;94.96;100258.55;2698306;87;21548;-72
2021/07/17 07:33:52;;;;;;;21.80;18.90;;;;;;;24.80;94.33;100250.45;2699110;88;21097;-69
2021/07/17 07:37:54;;;;;;;26.77;19.95;;;;;;;24.85;94.74;100255.75;2701963;86;21050;-70
2021/07/17 07:41:56;;;;;;;21.93;18.85;;;;;;;24.87;94.51;100255.03;2703088;86;20987;-69
2021/07/17 07:45:58;;;;;;;22.20;18.90;;;;;;;24.92;94.13;100254.64;2709052;86;21500;-72
2021/07/17 07:50:00;;;;;;;28.55;18.73;;;;;;;25.08;95.29;100251.06;2711021;87;21071;-70
2021/07/17 07:54:04;;;;;;;23.70;20.00;;;;;;;25.30;94.72;100249.29;2658666;89;21046;-73
2021/07/17 07:58:06;;;;;;;23.18;17.40;;;;;;;25.50;93.49;100245.86;2615126;91;21118;-71
2021/07/17 08:02:08;;;;;;;27.27;19.57;;;;;;;25.75;93.40;100248.22;2658802;88;21031;-71
2021/07/17 08:06:10;;;;;;;23.32;20.08;;;;;;;25.82;91.47;100248.95;2614974;91;21106;-71
2021/07/17 08:10:12;;;;;;;20.08;17.82;;;;;;;25.93;91.05;100252.28;2658799;89;21070;-70
2021/07/17 08:14:14;;;;;;;23.92;17.57;;;;;;;26.17;91.29;100255.15;2615808;91;21121;-69
2021/07/17 08:18:17;;;;;;;21.85;17.57;;;;;;;26.22;89.12;100251.73;2659120;88;21130;-70
2021/07/17 08:22:18;;;;;;;25.15;17.20;;;;;;;26.26;88.68;100252.94;2615456;91;21082;-69
2021/07/17 08:26:20;;;;;;;21.35;16.42;;;;;;;26.33;89.05;100250.12;2659476;89;21022;-71
2021/07/17 08:30:22;;;;;;;20.60;16.67;;;;;;;26.35;87.58;100255.66;2615914;91;21026;-71
2021/07/17 08:34:24;;;;;;;25.95;16.87;;;;;;;26.32;87.35;100252.00;2659459;89;21082;-69
2021/07/17 08:38:25;;;;;;;22.77;17.02;;;;;;;26.35;88.05;100250.72;2634383;89;21063;-70
2021/07/17 08:42:29;;;;;;;21.40;16.67;;;;;;;26.49;87.93;100247.25;2656249;89;21050;-69
2021/07/17 08:46:32;;;;;;;20.90;16.95;;;;;;;26.54;86.67;100250.14;2656890;89;21041;-68
2021/07/17 08:50:34;;;;;;;25.65;16.35;;;;;;;26.62;87.87;100247.58;2616187;90;21557;-69
2021/07/17 08:54:41;;;;;;;23.00;17.80;;;;;;;26.74;87.45;100245.72;2656663;88;21074;-71
2021/07/17 08:58:43;;;;;;;20.45;15.45;;;;;;;26.83;87.44;100240.75;2657281;89;21023;-68
2021/07/17 09:02:48;;;;;;;25.57;16.05;;;;;;;26.96;87.50;100245.18;2657568;89;21015;-66
2021/07/17 09:06:52;;;;;;;17.95;15.80;;;;;;;26.89;85.41;100245.84;2658556;89;21070;-65
2021/07/17 09:10:55;;;;;;;18.92;15.55;;;;;;;26.71;85.49;100237.16;2639402;90;21066;-66
2021/07/17 09:14:59;;;;;;;18.37;14.40;;;;;;;26.69;85.95;100241.50;2658571;89;21023;-65
2021/07/17 09:19:01;;;;;;;20.55;14.35;;;;;;;26.63;84.86;100239.17;2658117;89;21089;-66
2021/07/17 09:23:06;;;;;;;27.65;15.93;;;;;;;26.69;85.80;100230.59;2639107;90;21039;-65
2021/07/17 09:27:10;;;;;;;;;;;;;;;26.94;85.48;100227.69;2661245;89;21066;-65
2021/07/17 09:31:12;;;;;;;18.35;13.78;;;;;;;27.15;82.96;100233.63;2634194;89;20104;-65
2021/07/17 09:35:22;;;;;;;19.17;13.95;;;;;;;27.26;80.98;100227.02;2659034;87;21002;-66
2021/07/17 09:39:34;;;;;;;15.38;13.43;;;;;;;27.38;80.90;100222.39;2642786;89;21098;-65
2021/07/17 09:43:42;;;;;;;14.18;12.25;;;;;;;27.41;81.33;100217.81;2688172;88;21063;-65
2021/07/17 09:47:44;;;;;;;19.50;13.43;;;;;;;27.73;79.38;100212.48;2688606;88;21004;-65
2021/07/17 09:51:47;;;;;;;17.73;13.58;;;;;;;27.89;78.36;100217.70;2688753;88;21122;-64
2021/07/17 09:55:56;;;;;;;13.25;9.55;;;;;;;27.88;77.57;100217.42;2688776;88;21047;-64
2021/07/17 10:00:08;;;;;;;7.22;6.45;;;;;;;27.89;77.78;100213.09;2684890;88;21008;-66
2021/07/17 10:04:14;;;;;;;8.83;6.47;;;;;;;27.72;77.14;100220.39;2688435;88;21055;-64
2021/07/17 10:08:16;;;;;;;8.63;7.40;;;;;;;27.58;78.07;100221.20;2688363;88;21026;-61
2021/07/17 10:12:23;;;;;;;11.12;8.03;;;;;;;27.40;77.66;100227.07;2687586;88;21055;-60
2021/07/17 10:16:27;;;;;;;9.68;7.70;;;;;;;27.05;77.25;100234.22;2686482;88;21068;-59
2021/07/17 10:20:29;;;;;;;10.37;8.63;;;;;;;26.74;78.30;100234.80;2687295;88;21360;-59
2021/07/17 10:24:31;;;;;;;12.63;8.88;;;;;;;26.57;78.96;100234.66;2687633;88;21028;-60
2021/07/17 10:28:35;;;;;;;12.28;9.63;;;;;;;26.58;79.80;100220.48;2687875;88;21039;-60
2021/07/17 10:32:36;;;;;;;9.75;8.60;;;;;;;26.77;79.86;100208.95;2687845;88;21023;-61
2021/07/17 10:37:12;;;;;;;11.15;8.75;;;;;;;27.08;79.22;100202.36;2692073;85;21071;-61
2021/07/17 10:41:16;;;;;;;;;;;;;;;27.39;79.14;100200.84;2702407;88;21094;-59
2021/07/17 10:45:38;;;;;;;11.73;9.03;;;;;;;27.51;77.40;100199.45;2700673;88;20185;-59
2021/07/17 10:49:51;;;;;;;9.65;8.68;;;;;;;27.53;77.97;100201.42;2698791;88;21027;-60
2021/07/17 10:53:57;;;;;;;10.63;8.18;;;;;;;27.56;76.86;100198.76;2700704;88;21015;-61
2021/07/17 10:58:12;;;;;;;11.00;9.58;;;;;;;27.87;76.75;100201.57;2701026;88;21053;-60
2021/07/17 11:02:15;;;;;;;;;;;;;;;28.26;75.12;100200.94;2682901;88;21086;-61
2021/07/17 11:06:31;;;;;;;11.97;9.68;;;;;;;28.70;75.64;100198.13;2701888;88;20160;-60
2021/07/17 11:10:41;;;;;;;8.58;7.60;;;;;;;29.09;74.77;100191.36;2701241;88;21095;-59
2021/07/17 11:14:46;;;;;;;13.93;11.00;;;;;;;29.31;72.62;100191.92;2701418;88;21004;-61
2021/07/17 11:18:48;;;;;;;10.27;8.20;;;;;;;29.32;71.06;100197.69;2701779;88;21071;-61
2021/07/17 11:23:16;;;;;;;17.23;9.23;;;;;;;29.36;70.25;100195.54;2702141;88;21027;-61
2021/07/17 11:27:18;;;;;;;10.63;8.93;;;;;;;29.32;70.56;100198.50;2701108;88;21997;-60
2021/07/17 11:31:36;;;;;;;10.05;7.87;;;;;;;29.32;70.64;100199.06;2701184;88;21095;-59
2021/07/17 11:35:42;;;;;;;10.82;8.88;;;;;;;29.36;70.80;100187.32;2701363;88;21083;-60
2021/07/17 11:39:49;;;;;;;10.95;8.60;;;;;;;29.39;70.01;100183.25;2701970;88;21040;-59
2021/07/17 11:43:52;;;;;;;8.38;6.97;;;;;;;29.33;68.74;100179.61;2701780;88;21123;-61
2021/07/17 11:48:07;;;;;;;9.80;7.25;;;;;;;29.23;68.15;100172.65;2701733;88;21024;-60
2021/07/17 11:52:30;;;;;;;7.47;6.78;;;;;;;29.22;68.49;100166.33;2701914;88;21107;-60
2021/07/17 11:56:34;;;;;;;6.65;5.95;;;;;;;29.24;69.10;100158.40;2723270;87;21102;-61
2021/07/17 12:00:37;;;;;;;8.18;7.12;;;;;;;29.16;69.17;100164.61;2675516;89;20993;-61
2021/07/17 12:04:51;;;;;;;7.10;6.37;;;;;;;29.21;69.88;100159.20;2748364;86;21026;-60
2021/07/17 12:08:53;;;;;;;8.53;7.67;;;;;;;29.45;70.33;100152.13;2748200;86;21041;-63
2021/07/17 12:12:59;;;;;;;10.72;8.68;;;;;;;29.44;69.04;100155.95;2747883;85;21053;-64
2021/07/17 12:22:38;;;;;;;8.88;7.90;;;;;;;29.00;71.18;100146.31;2748725;86;21054;-65
2021/07/17 12:27:13;;;;;;;9.27;8.37;;;;;;;28.88;71.47;100151.34;2749629;86;21069;-65
2021/07/17 12:31:15;;;;;;;10.90;9.03;;;;;;;28.88;71.16;100140.39;2749164;86;21065;-66
2021/07/17 12:36:02;;;;;;;9.38;8.10;;;;;;;29.00;71.07;100138.94;2749356;86;21046;-67
2021/07/17 12:40:54;;;;;;;11.05;8.68;;;;;;;29.08;71.34;100137.66;2764982;85;21048;-67
2021/07/17 12:50:02;;;;;;;8.53;7.55;;;;;;;29.89;68.93;100121.09;2765510;85;21052;-66
2021/07/17 12:54:33;;;;;;;10.58;7.03;;;;;;;30.28;66.92;100105.55;2765717;86;21032;-67
2021/07/17 12:58:36;;;;;;;10.78;8.43;;;;;;;30.42;66.27;100104.55;2765801;85;21024;-66
2021/07/17 13:02:38;;;;;;;8.65;7.55;;;;;;;30.48;65.21;100098.03;2765256;85;20993;-67
2021/07/17 13:07:19;;;;;;;10.80;8.83;;;;;;;30.17;65.80;100118.36;2765465;86;21057;-66
2021/07/17 13:11:22;;;;;;;9.28;8.33;;;;;;;30.17;65.80;100118.36;2764986;84;21037;-64
2021/07/17 13:16:00;;;;;;;10.03;8.38;;;;;;;29.96;66.11;100126.37;2764946;86;21013;-66
2021/07/17 13:20:09;;;;;;;11.00;8.63;;;;;;;29.93;66.28;100124.16;2765252;86;21131;-67
2021/07/17 13:24:15;;;;;;;10.00;8.45;;;;;;;29.92;66.88;100108.79;2765159;85;21028;-66
2021/07/17 13:28:16;;;;;;;10.95;8.10;;;;;;;29.88;65.31;100096.14;2764726;84;21020;-67
2021/07/17 13:32:43;;;;;;;12.82;8.23;;;;;;;29.88;65.31;100096.14;2765056;86;21036;-67
2021/07/17 13:37:01;;;;;;;12.03;7.67;;;;;;;29.98;65.95;100120.08;2765049;85;21049;-65
2021/07/17 13:41:16;;;;;;;9.95;8.35;;;;;;;29.86;66.54;100117.50;2765081;85;21056;-67
2021/07/17 13:45:25;;;;;;;10.00;8.18;;;;;;;29.61;66.67;100127.65;2763630;86;21047;-67
2021/07/17 13:49:32;;;;;;;13.90;7.75;;;;;;;29.42;67.71;100110.17;2764177;85;21025;-66
2021/07/17 13:53:35;;;;;;;13.85;9.33;;;;;;;29.34;68.59;100112.80;2765365;86;21004;-66
2021/07/17 13:57:43;;;;;;;9.05;8.08;;;;;;;29.28;68.58;100107.50;2764528;86;21080;-65
2021/07/17 14:01:45;;;;;;;18.10;7.97;;;;;;;29.22;68.79;100100.60;2765282;85;20992;-65
2021/07/17 14:05:57;;;;;;;13.18;8.58;;;;;;;29.12;68.54;100095.55;2765290;86;21005;-65
2021/07/17 14:09:59;;;;;;;18.40;10.25;;;;;;;29.04;70.77;100095.44;2765228;85;21017;-68
2021/07/17 14:14:00;;;;;;;13.50;9.55;;;;;;;28.73;74.46;100078.03;2764656;85;21063;-67
2021/07/17 14:18:03;;;;;;;20.02;11.28;;;;;;;28.73;74.46;100078.03;2764327;85;21123;-66
2021/07/17 14:22:05;;;;;;;12.58;10.70;;;;;;;28.97;73.54;100096.18;2765118;85;20957;-67
2021/07/17 14:26:09;;;;;;;11.53;8.83;;;;;;;28.99;72.92;100092.64;2764665;86;21029;-67
2021/07/17 14:30:12;;;;;;;13.53;9.90;;;;;;;29.01;72.60;100090.48;2765030;85;21048;-67
2021/07/17 14:34:16;;;;;;;14.53;8.30;;;;;;;29.10;74.39;100087.60;2754913;85;21036;-65
2021/07/17 14:38:18;;;;;;;11.48;9.70;;;;;;;29.17;72.65;100077.27;2728252;85;21011;-65
2021/07/17 14:42:20;;;;;;;13.43;10.03;;;;;;;29.17;72.65;100077.27;2708985;85;21083;-66
2021/07/17 14:46:28;;;;;;;9.45;8.50;;;;;;;29.32;74.95;100068.95;2668572;88;21051;-65
2021/07/17 14:50:32;;;;;;;11.65;7.65;;;;;;;29.57;73.17;100070.34;2672952;87;21075;-65
2021/07/17 14:54:35;;;;;;;13.25;8.70;;;;;;;29.78;72.19;100070.83;2680510;87;21000;-64
2021/07/17 14:58:39;;;;;;;15.00;8.95;;;;;;;29.83;71.30;100034.95;2678624;89;21048;-64
2021/07/17 15:02:41;;;;;;;10.58;8.88;;;;;;;29.83;71.30;100034.95;2702798;86;21046;-62
2021/07/17 15:06:43;;;;;;;12.28;9.33;;;;;;;30.09;69.83;100036.58;2720862;87;21058;-65
2021/07/17 15:10:46;;;;;;;11.40;9.35;;;;;;;30.09;69.83;100036.58;2720199;87;20955;-65
2021/07/17 15:14:49;;;;;;;9.55;7.90;;;;;;;30.15;69.28;100057.45;2720274;86;21042;-68
2021/07/17 15:18:50;;;;;;;10.28;8.38;;;;;;;29.97;69.97;100044.92;2720047;87;21082;-67
2021/07/17 15:22:52;;;;;;;9.23;8.13;;;;;;;30.13;69.29;100069.23;2720412;87;20987;-67
2021/07/17 15:26:56;;;;;;;9.38;7.72;;;;;;;30.19;68.42;100061.33;2720280;87;21683;-67
2021/07/17 15:30:58;;;;;;;10.93;8.55;;;;;;;30.26;68.80;100061.91;2720585;86;21032;-65
2021/07/17 15:35:00;;;;;;;11.08;8.68;;;;;;;30.13;68.91;100058.27;2720692;87;21043;-65
2021/07/17 15:39:02;;;;;;;10.32;9.28;;;;;;;30.13;68.91;100058.27;2722919;87;21043;-64
2021/07/17 15:43:04;;;;;;;12.10;9.18;;;;;;;30.06;69.70;100071.64;2706281;88;21084;-65
2021/07/17 15:47:10;;;;;;;12.95;10.10;;;;;;;30.06;69.70;100071.64;2724555;87;21069;-69
2021/07/17 15:51:12;;;;;;;14.80;10.58;;;;;;;29.90;69.94;100078.88;2724864;87;20999;-64
2021/07/17 15:55:14;;;;;;;12.30;9.48;;;;;;;29.76;70.98;100066.15;2724826;86;21030;-68
2021/07/17 15:59:17;;;;;;;9.60;8.65;;;;;;;29.81;71.56;100068.13;2724382;86;21102;-69
2021/07/17 16:03:19;;;;;;;14.07;10.30;;;;;;;29.81;71.30;100071.39;2724337;87;20983;-68
2021/07/17 16:07:21;;;;;;;13.78;9.23;;;;;;;29.76;70.21;100072.16;2723447;87;21030;-67
2021/07/17 16:11:23;;;;;;;11.83;10.25;;;;;;;29.56;70.53;100050.88;2709529;87;21102;-67
2021/07/17 16:15:26;;;;;;;14.78;11.80;;;;;;;29.43;70.52;100080.89;2671030;88;21118;-67
2021/07/17 16:19:28;;;;;;;15.38;8.70;;;;;;;29.11;71.40;100072.83;2722616;87;21106;-67
2021/07/17 16:23:30;;;;;;;11.10;9.68;;;;;;;28.73;73.22;100066.28;2723449;87;21106;-66
2021/07/17 16:27:33;;;;;;;11.85;10.55;;;;;;;28.73;73.22;100066.28;2723487;87;21022;-64
2021/07/17 16:31:35;;;;;;;11.90;10.35;;;;;;;28.55;74.63;100079.16;2672153;89;21027;-65
2021/07/17 16:35:37;;;;;;;10.98;8.98;;;;;;;28.44;75.59;100078.70;2724687;87;21058;-66
2021/07/17 16:39:39;;;;;;;17.40;12.90;;;;;;;28.43;76.33;100083.89;2741212;86;21041;-65
2021/07/17 16:43:41;;;;;;;13.00;10.93;;;;;;;28.50;76.06;100081.83;2752205;86;20952;-64
2021/07/17 16:47:44;;;;;;;15.45;11.22;;;;;;;28.48;75.56;100081.22;2752154;86;21044;-66
2021/07/17 16:51:45;;;;;;;12.73;11.30;;;;;;;28.38;75.94;100075.61;2752408;86;21014;-65
2021/07/17 16:55:50;;;;;;;14.70;11.25;;;;;;;28.22;76.23;100068.53;2752139;86;20999;-66
2021/07/17 16:59:52;;;;;;;;;;;;;;;28.13;76.92;100063.17;2754841;86;21043;-65
2021/07/17 17:03:54;;;;;;;13.85;11.68;;;;;;;28.06;77.28;100068.80;2775037;85;20113;-65
2021/07/17 17:07:56;;;;;;;24.00;12.20;;;;;;;28.07;77.45;100071.27;2751996;86;21083;-66
2021/07/17 17:12:00;;;;;;;18.12;12.68;;;;;;;28.11;77.93;100072.16;2752219;86;20984;-66
2021/07/17 17:16:03;;;;;;;14.38;10.88;;;;;;;28.12;77.73;100079.28;2751328;86;21043;-65
2021/07/17 17:20:08;;;;;;;15.60;12.18;;;;;;;28.04;77.65;100083.25;2752142;86;21047;-65
2021/07/17 17:24:12;;;;;;;18.67;13.08;;;;;;;27.91;78.53;100084.41;2751980;86;21036;-66
2021/07/17 17:28:15;;;;;;;18.02;13.32;;;;;;;27.79;79.20;100086.65;2752097;86;21015;-66
2021/07/17 17:32:18;;;;;;;19.17;13.00;;;;;;;27.69;80.21;100078.25;2750831;86;21063;-67
2021/07/17 17:36:20;;;;;;;22.02;13.03;;;;;;;27.58;80.49;100085.98;2750493;86;21489;-69
2021/07/17 17:40:22;;;;;;;15.25;12.85;;;;;;;27.51;81.18;100088.34;2751092;86;20996;-67
2021/07/17 17:44:24;;;;;;;16.45;12.45;;;;;;;27.42;81.67;100099.30;2752531;86;21580;-66
2021/07/17 17:48:26;;;;;;;17.50;13.70;;;;;;;27.37;82.11;100102.75;2752406;86;21007;-67
2021/07/17 17:52:28;;;;;;;16.10;11.60;;;;;;;27.34;82.42;100107.34;2751591;85;20972;-68
2021/07/17 17:56:30;;;;;;;13.93;11.75;;;;;;;27.31;82.70;100109.20;2751403;86;21072;-68
2021/07/17 18:00:34;;;;;;;24.47;13.50;;;;;;;27.27;82.74;100114.01;2750989;86;20992;-67
2021/07/17 18:04:39;;;;;;;14.55;12.50;;;;;;;27.22;82.86;100126.48;2751315;86;20964;-67
2021/07/17 18:08:41;;;;;;;20.52;13.10;;;;;;;27.18;83.00;100134.02;2751138;86;21003;-68
2021/07/17 18:12:45;;;;;;;17.40;11.40;;;;;;;27.20;82.87;100143.65;2751588;86;21020;-66
2021/07/17 18:16:48;;;;;;;13.00;9.00;;;;;;;27.11;80.61;100144.26;2750325;86;21103;-67
2021/07/17 18:20:50;;;;;;;10.43;8.70;;;;;;;26.93;77.67;100156.45;2750404;86;21331;-68
2021/07/17 18:24:52;;;;;;;10.72;8.75;;;;;;;26.72;77.32;100166.53;2751439;86;21474;-69
2021/07/17 18:28:54;;;;;;;14.93;9.93;;;;;;;26.51;77.62;100171.48;2694262;88;21062;-68
2021/07/17 18:32:56;;;;;;;14.10;10.23;;;;;;;26.31;78.45;100165.82;2694429;88;21027;-69
2021/07/17 18:36:58;;;;;;;14.53;8.10;;;;;;;26.15;79.39;100166.48;2694137;88;21063;-66
2021/07/17 18:41:00;;;;;;;10.25;8.38;;;;;;;26.07;79.89;100165.73;2667019;88;21051;-69
2021/07/17 18:45:13;;;;;;;13.03;9.18;;;;;;;25.98;80.28;100166.29;2660900;89;21086;-67